sensor_id;sensor_type;location;lat;lon;timestamp;pressure;altitude;pressure_sealevel;temperature;humidity
9439;BME280;5176;42.622;25.386;2024-02-23T00:01:53;97163.00;;;5.45;82.89
9439;BME280;5176;42.622;25.386;2024-02-23T00:04:20;97146.63;;;5.43;83.25
9439;BME280;5176;42.622;25.386;2024-02-23T00:06:47;97153.88;;;5.55;82.02
9439;BME280;5176;42.622;25.386;2024-02-23T00:09:15;97154.28;;;5.65;81.33
9439;BME280;5176;42.622;25.386;2024-02-23T00:11:42;97150.50;;;5.72;81.29
9439;BME280;5176;42.622;25.386;2024-02-23T00:14:11;97148.53;;;5.58;80.85
9439;BME280;5176;42.622;25.386;2024-02-23T00:16:40;97142.22;;;5.64;81.13
9439;BME280;5176;42.622;25.386;2024-02-23T00:19:08;97148.91;;;5.69;81.74
9439;BME280;5176;42.622;25.386;2024-02-23T00:21:36;97153.19;;;5.70;81.94
9439;BME280;5176;42.622;25.386;2024-02-23T00:24:03;97158.28;;;5.72;81.79
9439;BME280;5176;42.622;25.386;2024-02-23T00:26:31;97153.84;;;5.74;81.11
9439;BME280;5176;42.622;25.386;2024-02-23T00:28:58;97147.97;;;5.70;81.71
9439;BME280;5176;42.622;25.386;2024-02-23T00:31:25;97135.16;;;5.66;81.57
9439;BME280;5176;42.622;25.386;2024-02-23T00:33:54;97137.34;;;5.75;81.03
9439;BME280;5176;42.622;25.386;2024-02-23T00:36:22;97135.81;;;5.71;81.15
9439;BME280;5176;42.622;25.386;2024-02-23T00:38:49;97148.47;;;5.79;81.15
9439;BME280;5176;42.622;25.386;2024-02-23T00:41:16;97130.25;;;5.79;81.13
9439;BME280;5176;42.622;25.386;2024-02-23T00:43:44;97140.50;;;5.82;80.76
9439;BME280;5176;42.622;25.386;2024-02-23T00:46:13;97136.28;;;5.79;81.48
9439;BME280;5176;42.622;25.386;2024-02-23T00:48:41;97135.59;;;5.76;81.38
9439;BME280;5176;42.622;25.386;2024-02-23T00:51:10;97137.34;;;5.75;80.94
9439;BME280;5176;42.622;25.386;2024-02-23T00:53:37;97127.28;;;5.67;80.83
9439;BME280;5176;42.622;25.386;2024-02-23T00:56:05;97139.16;;;5.73;81.41
9439;BME280;5176;42.622;25.386;2024-02-23T00:58:33;97135.44;;;5.79;80.43
9439;BME280;5176;42.622;25.386;2024-02-23T01:01:00;97128.50;;;5.79;79.89
9439;BME280;5176;42.622;25.386;2024-02-23T01:03:28;97133.84;;;5.76;79.74
9439;BME280;5176;42.622;25.386;2024-02-23T01:05:55;97126.31;;;5.70;80.90
9439;BME280;5176;42.622;25.386;2024-02-23T01:08:24;97116.97;;;5.66;80.91
9439;BME280;5176;42.622;25.386;2024-02-23T01:10:52;97118.81;;;5.64;80.82
9439;BME280;5176;42.622;25.386;2024-02-23T01:13:19;97123.38;;;5.59;80.33
9439;BME280;5176;42.622;25.386;2024-02-23T01:15:47;97118.53;;;5.51;81.06
9439;BME280;5176;42.622;25.386;2024-02-23T01:18:14;97111.16;;;5.42;80.83
9439;BME280;5176;42.622;25.386;2024-02-23T01:20:42;97105.69;;;5.28;81.05
9439;BME280;5176;42.622;25.386;2024-02-23T01:23:09;97111.69;;;5.30;81.22
9439;BME280;5176;42.622;25.386;2024-02-23T01:25:38;97104.66;;;5.32;80.50
9439;BME280;5176;42.622;25.386;2024-02-23T01:28:06;97095.88;;;5.34;80.60
9439;BME280;5176;42.622;25.386;2024-02-23T01:30:34;97093.28;;;5.34;80.06
9439;BME280;5176;42.622;25.386;2024-02-23T01:33:01;97098.75;;;5.28;80.44
9439;BME280;5176;42.622;25.386;2024-02-23T01:35:29;97090.94;;;5.28;81.37
9439;BME280;5176;42.622;25.386;2024-02-23T01:37:56;97091.94;;;5.26;82.74
9439;BME280;5176;42.622;25.386;2024-02-23T01:40:23;97093.13;;;5.18;84.18
9439;BME280;5176;42.622;25.386;2024-02-23T01:43:02;97089.69;;;5.18;84.65
9439;BME280;5176;42.622;25.386;2024-02-23T01:45:29;97084.56;;;5.16;85.51
9439;BME280;5176;42.622;25.386;2024-02-23T01:47:57;97093.28;;;5.15;86.29
9439;BME280;5176;42.622;25.386;2024-02-23T01:50:25;97086.50;;;5.11;86.66
9439;BME280;5176;42.622;25.386;2024-02-23T01:52:53;97083.34;;;5.05;87.21
9439;BME280;5176;42.622;25.386;2024-02-23T01:55:20;97091.06;;;5.06;87.36
9439;BME280;5176;42.622;25.386;2024-02-23T01:57:48;97093.81;;;5.03;86.91
9439;BME280;5176;42.622;25.386;2024-02-23T02:00:18;97090.31;;;5.04;86.21
9439;BME280;5176;42.622;25.386;2024-02-23T02:02:47;97082.59;;;5.03;85.44
9439;BME280;5176;42.622;25.386;2024-02-23T02:05:14;97074.97;;;4.98;85.13
9439;BME280;5176;42.622;25.386;2024-02-23T02:07:42;97083.19;;;4.89;86.73
9439;BME280;5176;42.622;25.386;2024-02-23T02:10:10;97082.97;;;4.93;87.30
9439;BME280;5176;42.622;25.386;2024-02-23T02:12:37;97084.72;;;4.93;86.89
9439;BME280;5176;42.622;25.386;2024-02-23T02:15:06;97086.75;;;4.86;87.40
9439;BME280;5176;42.622;25.386;2024-02-23T02:17:35;97088.97;;;4.75;87.74
9439;BME280;5176;42.622;25.386;2024-02-23T02:20:03;97086.97;;;4.61;88.48
9439;BME280;5176;42.622;25.386;2024-02-23T02:22:32;97092.59;;;4.51;89.28
9439;BME280;5176;42.622;25.386;2024-02-23T02:25:00;97086.06;;;4.42;90.67
9439;BME280;5176;42.622;25.386;2024-02-23T02:27:28;97085.72;;;4.50;90.98
9439;BME280;5176;42.622;25.386;2024-02-23T02:29:55;97084.50;;;4.58;90.11
9439;BME280;5176;42.622;25.386;2024-02-23T02:32:23;97085.22;;;4.62;90.33
9439;BME280;5176;42.622;25.386;2024-02-23T02:34:52;97081.44;;;4.69;90.17
9439;BME280;5176;42.622;25.386;2024-02-23T02:37:20;97083.81;;;4.74;90.42
9439;BME280;5176;42.622;25.386;2024-02-23T02:39:47;97085.31;;;4.79;89.65
9439;BME280;5176;42.622;25.386;2024-02-23T02:42:15;97088.97;;;4.75;89.82
9439;BME280;5176;42.622;25.386;2024-02-23T02:44:42;97085.50;;;4.75;89.76
9439;BME280;5176;42.622;25.386;2024-02-23T02:47:10;97091.56;;;4.75;89.90
9439;BME280;5176;42.622;25.386;2024-02-23T02:49:38;97087.34;;;4.73;89.65
9439;BME280;5176;42.622;25.386;2024-02-23T02:52:07;97092.53;;;4.73;89.68
9439;BME280;5176;42.622;25.386;2024-02-23T02:54:35;97087.84;;;4.60;89.68
9439;BME280;5176;42.622;25.386;2024-02-23T02:57:02;97098.38;;;4.57;89.94
9439;BME280;5176;42.622;25.386;2024-02-23T02:59:34;97084.94;;;4.48;90.37
9439;BME280;5176;42.622;25.386;2024-02-23T03:02:02;97091.44;;;4.37;90.67
9439;BME280;5176;42.622;25.386;2024-02-23T03:04:29;97091.09;;;4.25;91.59
9439;BME280;5176;42.622;25.386;2024-02-23T03:06:56;97086.06;;;4.20;92.12
9439;BME280;5176;42.622;25.386;2024-02-23T03:09:25;97078.50;;;4.16;92.61
9439;BME280;5176;42.622;25.386;2024-02-23T03:11:53;97087.75;;;4.21;93.27
9439;BME280;5176;42.622;25.386;2024-02-23T03:14:21;97084.22;;;4.24;92.78
9439;BME280;5176;42.622;25.386;2024-02-23T03:16:49;97086.06;;;4.20;92.18
9439;BME280;5176;42.622;25.386;2024-02-23T03:19:16;97089.50;;;4.21;92.50
9439;BME280;5176;42.622;25.386;2024-02-23T03:21:48;97082.63;;;4.20;92.83
9439;BME280;5176;42.622;25.386;2024-02-23T03:24:15;97088.88;;;4.16;91.94
9439;BME280;5176;42.622;25.386;2024-02-23T03:26:44;97089.28;;;4.05;91.91
9439;BME280;5176;42.622;25.386;2024-02-23T03:29:11;97088.28;;;4.09;93.14
9439;BME280;5176;42.622;25.386;2024-02-23T03:31:39;97089.44;;;4.02;92.85
9439;BME280;5176;42.622;25.386;2024-02-23T03:34:07;97083.16;;;3.86;93.52
9439;BME280;5176;42.622;25.386;2024-02-23T03:36:36;97068.34;;;3.89;94.43
9439;BME280;5176;42.622;25.386;2024-02-23T03:39:03;97076.47;;;4.02;94.56
9439;BME280;5176;42.622;25.386;2024-02-23T03:41:31;97075.56;;;4.03;94.22
9439;BME280;5176;42.622;25.386;2024-02-23T03:44:00;97068.88;;;3.97;94.72
9439;BME280;5176;42.622;25.386;2024-02-23T03:46:27;97080.69;;;4.04;95.04
9439;BME280;5176;42.622;25.386;2024-02-23T03:48:55;97077.09;;;4.07;95.54
9439;BME280;5176;42.622;25.386;2024-02-23T03:51:23;97070.72;;;4.16;95.42
9439;BME280;5176;42.622;25.386;2024-02-23T03:53:50;97077.59;;;4.17;95.09
9439;BME280;5176;42.622;25.386;2024-02-23T03:56:18;97064.94;;;4.09;93.77
9439;BME280;5176;42.622;25.386;2024-02-23T03:58:45;97072.66;;;4.10;93.22
9439;BME280;5176;42.622;25.386;2024-02-23T04:01:14;97075.81;;;3.97;95.61
9439;BME280;5176;42.622;25.386;2024-02-23T04:03:42;97075.31;;;3.87;96.95
9439;BME280;5176;42.622;25.386;2024-02-23T04:06:09;97076.88;;;3.91;97.88
9439;BME280;5176;42.622;25.386;2024-02-23T04:08:37;97076.16;;;3.88;98.00
9439;BME280;5176;42.622;25.386;2024-02-23T04:11:04;97074.28;;;3.91;97.90
9439;BME280;5176;42.622;25.386;2024-02-23T04:13:31;97072.47;;;3.93;96.85
9439;BME280;5176;42.622;25.386;2024-02-23T04:16:00;97072.47;;;3.93;95.76
9439;BME280;5176;42.622;25.386;2024-02-23T04:18:29;97083.28;;;3.82;96.25
9439;BME280;5176;42.622;25.386;2024-02-23T04:20:57;97066.88;;;3.82;95.25
9439;BME280;5176;42.622;25.386;2024-02-23T04:23:24;97073.88;;;3.80;95.49
9439;BME280;5176;42.622;25.386;2024-02-23T04:25:52;97068.03;;;3.75;95.67
9439;BME280;5176;42.622;25.386;2024-02-23T04:28:20;97057.78;;;3.72;95.56
9439;BME280;5176;42.622;25.386;2024-02-23T04:30:47;97072.84;;;3.84;95.25
9439;BME280;5176;42.622;25.386;2024-02-23T04:33:14;97076.16;;;3.88;93.50
9439;BME280;5176;42.622;25.386;2024-02-23T04:35:43;97073.22;;;3.75;93.64
9439;BME280;5176;42.622;25.386;2024-02-23T04:38:11;97060.59;;;3.66;94.20
9439;BME280;5176;42.622;25.386;2024-02-23T04:40:38;97068.28;;;3.69;95.00
9439;BME280;5176;42.622;25.386;2024-02-23T04:43:05;97076.34;;;3.61;94.75
9439;BME280;5176;42.622;25.386;2024-02-23T04:45:33;97080.63;;;3.62;95.22
9439;BME280;5176;42.622;25.386;2024-02-23T04:48:00;97075.84;;;3.51;95.47
9439;BME280;5176;42.622;25.386;2024-02-23T04:50:29;97086.38;;;3.47;95.74
9439;BME280;5176;42.622;25.386;2024-02-23T04:52:58;97082.34;;;3.40;95.44
9439;BME280;5176;42.622;25.386;2024-02-23T04:55:26;97081.56;;;3.38;96.16
9439;BME280;5176;42.622;25.386;2024-02-23T04:57:53;97078.00;;;3.40;95.97
9439;BME280;5176;42.622;25.386;2024-02-23T05:00:21;97071.25;;;3.36;95.85
9439;BME280;5176;42.622;25.386;2024-02-23T05:02:49;97076.31;;;3.39;95.88
9439;BME280;5176;42.622;25.386;2024-02-23T05:05:16;97075.81;;;3.30;96.79
9439;BME280;5176;42.622;25.386;2024-02-23T05:07:43;97075.81;;;3.30;96.51
9439;BME280;5176;42.622;25.386;2024-02-23T05:10:12;97073.53;;;3.22;95.90
9439;BME280;5176;42.622;25.386;2024-02-23T05:12:39;97074.13;;;3.28;95.86
9439;BME280;5176;42.622;25.386;2024-02-23T05:15:07;97073.31;;;3.26;95.59
9439;BME280;5176;42.622;25.386;2024-02-23T05:17:35;97078.03;;;3.17;96.25
9439;BME280;5176;42.622;25.386;2024-02-23T05:20:02;97081.38;;;3.19;96.92
9439;BME280;5176;42.622;25.386;2024-02-23T05:22:33;97082.59;;;3.10;97.38
9439;BME280;5176;42.622;25.386;2024-02-23T05:25:01;97086.97;;;3.08;98.60
9439;BME280;5176;42.622;25.386;2024-02-23T05:27:29;97078.47;;;3.05;98.82
9439;BME280;5176;42.622;25.386;2024-02-23T05:29:57;97091.91;;;3.14;99.72
9439;BME280;5176;42.622;25.386;2024-02-23T05:32:24;97082.34;;;3.16;99.88
9439;BME280;5176;42.622;25.386;2024-02-23T05:34:52;97084.88;;;3.18;100.00
9439;BME280;5176;42.622;25.386;2024-02-23T05:37:20;97087.34;;;3.21;100.00
9439;BME280;5176;42.622;25.386;2024-02-23T05:39:47;97079.34;;;3.27;100.00
9439;BME280;5176;42.622;25.386;2024-02-23T05:42:14;97086.97;;;3.32;100.00
9439;BME280;5176;42.622;25.386;2024-02-23T05:44:44;97095.28;;;3.40;100.00
9439;BME280;5176;42.622;25.386;2024-02-23T05:47:13;97096.13;;;3.40;100.00
9439;BME280;5176;42.622;25.386;2024-02-23T05:49:40;97102.78;;;3.47;100.00
9439;BME280;5176;42.622;25.386;2024-02-23T05:52:08;97099.00;;;3.56;100.00
9439;BME280;5176;42.622;25.386;2024-02-23T05:54:35;97098.53;;;3.68;100.00
9439;BME280;5176;42.622;25.386;2024-02-23T05:57:03;97094.00;;;3.73;100.00
9439;BME280;5176;42.622;25.386;2024-02-23T05:59:30;97094.66;;;3.78;100.00
9439;BME280;5176;42.622;25.386;2024-02-23T06:01:59;97104.06;;;3.81;100.00
9439;BME280;5176;42.622;25.386;2024-02-23T06:04:26;97101.00;;;3.93;100.00
9439;BME280;5176;42.622;25.386;2024-02-23T06:06:54;97099.59;;;4.06;100.00
9439;BME280;5176;42.622;25.386;2024-02-23T06:09:21;97105.16;;;4.19;99.86
9439;BME280;5176;42.622;25.386;2024-02-23T06:11:49;97097.88;;;4.27;99.11
9439;BME280;5176;42.622;25.386;2024-02-23T06:14:16;97104.00;;;4.47;98.82
9439;BME280;5176;42.622;25.386;2024-02-23T06:16:43;97107.75;;;4.61;98.06
9439;BME280;5176;42.622;25.386;2024-02-23T06:19:12;97111.38;;;4.78;97.23
9439;BME280;5176;42.622;25.386;2024-02-23T06:21:40;97110.69;;;4.93;96.71
9439;BME280;5176;42.622;25.386;2024-02-23T06:24:07;97117.97;;;5.05;95.98
9439;BME280;5176;42.622;25.386;2024-02-23T06:26:34;97127.31;;;5.09;95.57
9439;BME280;5176;42.622;25.386;2024-02-23T06:29:02;97107.59;;;5.24;95.35
9439;BME280;5176;42.622;25.386;2024-02-23T06:31:29;97118.72;;;5.46;94.42
9439;BME280;5176;42.622;25.386;2024-02-23T06:33:56;97115.13;;;5.68;92.87
9439;BME280;5176;42.622;25.386;2024-02-23T06:36:25;97122.75;;;5.91;92.66
9439;BME280;5176;42.622;25.386;2024-02-23T06:38:52;97114.84;;;6.12;91.96
9439;BME280;5176;42.622;25.386;2024-02-23T06:41:20;97117.16;;;6.35;90.22
9439;BME280;5176;42.622;25.386;2024-02-23T06:43:47;97109.81;;;6.61;88.11
9439;BME280;5176;42.622;25.386;2024-02-23T06:46:14;97107.59;;;6.88;87.63
9439;BME280;5176;42.622;25.386;2024-02-23T06:48:45;97121.06;;;7.13;86.66
9439;BME280;5176;42.622;25.386;2024-02-23T06:51:12;97119.78;;;7.37;84.73
9439;BME280;5176;42.622;25.386;2024-02-23T06:53:43;97116.78;;;7.61;82.89
9439;BME280;5176;42.622;25.386;2024-02-23T06:56:10;97116.88;;;7.75;83.46
9439;BME280;5176;42.622;25.386;2024-02-23T06:58:38;97119.59;;;7.89;83.63
9439;BME280;5176;42.622;25.386;2024-02-23T07:01:05;97119.31;;;8.10;82.49
9439;BME280;5176;42.622;25.386;2024-02-23T07:03:37;97112.50;;;8.23;81.49
9439;BME280;5176;42.622;25.386;2024-02-23T07:06:05;97120.22;;;8.40;80.61
9439;BME280;5176;42.622;25.386;2024-02-23T07:08:35;97114.06;;;8.57;78.78
9439;BME280;5176;42.622;25.386;2024-02-23T07:11:04;97113.84;;;8.76;78.49
9439;BME280;5176;42.622;25.386;2024-02-23T07:13:31;97109.75;;;9.00;77.20
9439;BME280;5176;42.622;25.386;2024-02-23T07:16:00;97103.91;;;9.25;76.56
9439;BME280;5176;42.622;25.386;2024-02-23T07:18:27;97109.31;;;9.51;74.98
9439;BME280;5176;42.622;25.386;2024-02-23T07:20:55;97107.25;;;9.70;74.04
9439;BME280;5176;42.622;25.386;2024-02-23T07:23:22;97106.66;;;9.79;71.57
9439;BME280;5176;42.622;25.386;2024-02-23T07:25:50;97113.00;;;9.90;72.72
9439;BME280;5176;42.622;25.386;2024-02-23T07:28:19;97110.75;;;9.98;71.87
9439;BME280;5176;42.622;25.386;2024-02-23T07:30:48;97115.00;;;10.13;71.79
9439;BME280;5176;42.622;25.386;2024-02-23T07:33:15;97110.41;;;10.31;71.50
9439;BME280;5176;42.622;25.386;2024-02-23T07:35:43;97116.13;;;10.50;71.77
9439;BME280;5176;42.622;25.386;2024-02-23T07:38:10;97113.44;;;10.64;71.38
9439;BME280;5176;42.622;25.386;2024-02-23T07:40:38;97095.94;;;10.78;69.69
9439;BME280;5176;42.622;25.386;2024-02-23T07:43:05;97103.06;;;10.88;69.55
9439;BME280;5176;42.622;25.386;2024-02-23T07:45:34;97098.50;;;11.05;70.06
9439;BME280;5176;42.622;25.386;2024-02-23T07:48:01;97104.16;;;11.11;69.14
9439;BME280;5176;42.622;25.386;2024-02-23T07:50:29;97099.13;;;11.21;69.90
9439;BME280;5176;42.622;25.386;2024-02-23T07:52:56;97096.19;;;11.38;71.22
9439;BME280;5176;42.622;25.386;2024-02-23T07:55:23;97101.91;;;11.56;68.76
9439;BME280;5176;42.622;25.386;2024-02-23T07:57:50;97091.22;;;11.59;67.76
9439;BME280;5176;42.622;25.386;2024-02-23T08:00:18;97094.03;;;11.82;67.61
9439;BME280;5176;42.622;25.386;2024-02-23T08:02:47;97086.97;;;11.95;66.87
9439;BME280;5176;42.622;25.386;2024-02-23T08:05:15;97092.00;;;12.22;66.63
9439;BME280;5176;42.622;25.386;2024-02-23T08:07:43;97094.38;;;12.38;66.00
9439;BME280;5176;42.622;25.386;2024-02-23T08:10:11;97085.72;;;12.60;64.57
9439;BME280;5176;42.622;25.386;2024-02-23T08:12:38;97081.03;;;12.87;63.69
9439;BME280;5176;42.622;25.386;2024-02-23T08:15:07;97089.09;;;13.08;63.13
9439;BME280;5176;42.622;25.386;2024-02-23T08:17:34;97088.00;;;13.10;60.82
9439;BME280;5176;42.622;25.386;2024-02-23T08:20:04;97081.84;;;13.34;60.29
9439;BME280;5176;42.622;25.386;2024-02-23T08:22:32;97083.78;;;13.54;58.78
9439;BME280;5176;42.622;25.386;2024-02-23T08:24:59;97082.56;;;13.70;58.33
9439;BME280;5176;42.622;25.386;2024-02-23T08:27:26;97089.88;;;13.66;58.27
9439;BME280;5176;42.622;25.386;2024-02-23T08:29:54;97080.41;;;13.75;57.83
9439;BME280;5176;42.622;25.386;2024-02-23T08:32:21;97055.03;;;13.85;57.78
9439;BME280;5176;42.622;25.386;2024-02-23T08:34:48;97076.75;;;14.21;56.20
9439;BME280;5176;42.622;25.386;2024-02-23T08:37:17;97069.84;;;14.40;56.52
9439;BME280;5176;42.622;25.386;2024-02-23T08:39:44;97072.53;;;14.61;56.23
9439;BME280;5176;42.622;25.386;2024-02-23T08:42:12;97080.09;;;14.87;56.13
9439;BME280;5176;42.622;25.386;2024-02-23T08:44:39;97078.25;;;14.98;54.16
9439;BME280;5176;42.622;25.386;2024-02-23T08:47:06;97080.72;;;15.21;53.70
9439;BME280;5176;42.622;25.386;2024-02-23T08:49:34;97071.03;;;15.31;53.35
9439;BME280;5176;42.622;25.386;2024-02-23T08:52:01;97069.34;;;15.51;52.30
9439;BME280;5176;42.622;25.386;2024-02-23T08:54:31;97066.69;;;15.72;51.58
9439;BME280;5176;42.622;25.386;2024-02-23T08:56:58;97071.06;;;15.92;50.01
9439;BME280;5176;42.622;25.386;2024-02-23T08:59:26;97065.94;;;16.10;50.23
9439;BME280;5176;42.622;25.386;2024-02-23T09:01:53;97068.38;;;16.32;49.33
9439;BME280;5176;42.622;25.386;2024-02-23T09:04:20;97070.16;;;16.51;47.99
9439;BME280;5176;42.622;25.386;2024-02-23T09:06:47;97073.81;;;16.60;47.93
9439;BME280;5176;42.622;25.386;2024-02-23T09:09:17;97070.59;;;16.66;47.12
9439;BME280;5176;42.622;25.386;2024-02-23T09:11:46;97064.09;;;16.80;45.94
9439;BME280;5176;42.622;25.386;2024-02-23T09:14:13;97062.09;;;16.92;46.51
9439;BME280;5176;42.622;25.386;2024-02-23T09:16:41;97072.91;;;17.17;45.18
9439;BME280;5176;42.622;25.386;2024-02-23T09:19:08;97068.94;;;16.94;44.96
9439;BME280;5176;42.622;25.386;2024-02-23T09:21:36;97065.72;;;16.91;44.38
9439;BME280;5176;42.622;25.386;2024-02-23T09:24:04;97069.19;;;17.10;43.79
9439;BME280;5176;42.622;25.386;2024-02-23T09:26:31;97071.78;;;17.39;43.62
9439;BME280;5176;42.622;25.386;2024-02-23T09:29:00;97066.94;;;17.62;42.63
9439;BME280;5176;42.622;25.386;2024-02-23T09:31:27;97064.75;;;17.85;42.22
9439;BME280;5176;42.622;25.386;2024-02-23T09:33:55;97064.16;;;17.91;40.88
9439;BME280;5176;42.622;25.386;2024-02-23T09:36:22;97057.25;;;17.81;41.60
9439;BME280;5176;42.622;25.386;2024-02-23T09:38:50;97059.19;;;17.88;40.13
9439;BME280;5176;42.622;25.386;2024-02-23T09:41:19;97057.00;;;18.02;39.31
9439;BME280;5176;42.622;25.386;2024-02-23T09:43:47;97053.81;;;17.98;39.54
9439;BME280;5176;42.622;25.386;2024-02-23T09:46:17;97055.34;;;18.01;38.96
9439;BME280;5176;42.622;25.386;2024-02-23T09:48:45;97046.91;;;18.05;38.83
9439;BME280;5176;42.622;25.386;2024-02-23T09:51:13;97052.22;;;17.87;39.91
9439;BME280;5176;42.622;25.386;2024-02-23T09:53:42;97043.34;;;17.96;40.72
9439;BME280;5176;42.622;25.386;2024-02-23T09:56:10;97042.84;;;18.11;39.89
9439;BME280;5176;42.622;25.386;2024-02-23T09:58:39;97035.53;;;18.40;39.49
9439;BME280;5176;42.622;25.386;2024-02-23T10:01:08;97032.72;;;18.60;38.66
9439;BME280;5176;42.622;25.386;2024-02-23T10:03:39;97033.22;;;18.45;38.80
9439;BME280;5176;42.622;25.386;2024-02-23T10:06:06;97035.00;;;18.55;39.05
9439;BME280;5176;42.622;25.386;2024-02-23T10:08:34;97028.34;;;18.68;38.32
9439;BME280;5176;42.622;25.386;2024-02-23T10:11:01;97023.41;;;18.73;38.61
9439;BME280;5176;42.622;25.386;2024-02-23T10:13:29;97031.03;;;18.94;39.04
9439;BME280;5176;42.622;25.386;2024-02-23T10:15:56;97020.53;;;18.67;37.89
9439;BME280;5176;42.622;25.386;2024-02-23T10:18:24;97010.50;;;18.61;37.98
9439;BME280;5176;42.622;25.386;2024-02-23T10:20:53;97007.69;;;18.62;38.29
9439;BME280;5176;42.622;25.386;2024-02-23T10:23:21;97006.66;;;18.99;38.54
9439;BME280;5176;42.622;25.386;2024-02-23T10:25:49;97005.09;;;19.14;37.06
9439;BME280;5176;42.622;25.386;2024-02-23T10:28:17;97004.34;;;19.30;37.58
9439;BME280;5176;42.622;25.386;2024-02-23T10:30:48;97000.44;;;19.42;36.55
9439;BME280;5176;42.622;25.386;2024-02-23T10:33:19;97002.88;;;19.62;37.21
9439;BME280;5176;42.622;25.386;2024-02-23T10:35:55;96999.59;;;19.68;35.38
9439;BME280;5176;42.622;25.386;2024-02-23T10:38:24;96990.59;;;19.35;36.54
9439;BME280;5176;42.622;25.386;2024-02-23T10:40:55;96984.75;;;19.31;36.36
9439;BME280;5176;42.622;25.386;2024-02-23T10:43:30;96992.25;;;19.36;36.64
9439;BME280;5176;42.622;25.386;2024-02-23T10:46:01;96984.84;;;19.47;35.55
9439;BME280;5176;42.622;25.386;2024-02-23T10:48:34;96973.47;;;19.63;35.45
9439;BME280;5176;42.622;25.386;2024-02-23T10:51:05;96975.47;;;19.61;34.97
9439;BME280;5176;42.622;25.386;2024-02-23T10:53:34;96972.63;;;19.63;35.63
9439;BME280;5176;42.622;25.386;2024-02-23T10:56:03;96968.81;;;19.65;34.84
9439;BME280;5176;42.622;25.386;2024-02-23T10:58:32;96960.19;;;19.63;35.57
9439;BME280;5176;42.622;25.386;2024-02-23T11:01:00;96966.50;;;19.62;34.95
9439;BME280;5176;42.622;25.386;2024-02-23T11:03:28;96966.78;;;19.59;34.79
9439;BME280;5176;42.622;25.386;2024-02-23T11:05:57;96948.63;;;19.46;35.48
9439;BME280;5176;42.622;25.386;2024-02-23T11:08:28;96956.06;;;19.35;35.25
9439;BME280;5176;42.622;25.386;2024-02-23T11:10:55;96943.31;;;19.46;35.41
9439;BME280;5176;42.622;25.386;2024-02-23T11:13:30;96950.03;;;19.32;35.54
9439;BME280;5176;42.622;25.386;2024-02-23T11:16:01;96952.25;;;19.45;35.10
9439;BME280;5176;42.622;25.386;2024-02-23T11:18:29;96947.88;;;19.62;35.13
9439;BME280;5176;42.622;25.386;2024-02-23T11:20:59;96953.56;;;19.75;34.72
9439;BME280;5176;42.622;25.386;2024-02-23T11:23:39;96948.47;;;19.98;34.37
9439;BME280;5176;42.622;25.386;2024-02-23T11:26:09;96931.13;;;19.78;34.74
9439;BME280;5176;42.622;25.386;2024-02-23T11:28:43;96936.16;;;19.97;35.14
9439;BME280;5176;42.622;25.386;2024-02-23T11:31:12;96939.69;;;20.14;34.50
9439;BME280;5176;42.622;25.386;2024-02-23T11:33:47;96935.38;;;20.29;33.53
9439;BME280;5176;42.622;25.386;2024-02-23T11:36:22;96934.25;;;20.48;33.24
9439;BME280;5176;42.622;25.386;2024-02-23T11:38:53;96928.22;;;20.62;32.91
9439;BME280;5176;42.622;25.386;2024-02-23T11:41:22;96924.75;;;20.54;31.70
9439;BME280;5176;42.622;25.386;2024-02-23T11:43:50;96923.22;;;20.43;32.75
9439;BME280;5176;42.622;25.386;2024-02-23T11:46:18;96921.88;;;20.23;33.43
9439;BME280;5176;42.622;25.386;2024-02-23T11:48:46;96893.41;;;19.66;33.75
9439;BME280;5176;42.622;25.386;2024-02-23T11:51:19;96916.03;;;19.44;34.16
9439;BME280;5176;42.622;25.386;2024-02-23T11:53:47;96905.09;;;19.47;33.87
9439;BME280;5176;42.622;25.386;2024-02-23T11:56:16;96915.75;;;19.55;32.83
9439;BME280;5176;42.622;25.386;2024-02-23T11:58:44;96914.75;;;19.48;33.59
9439;BME280;5176;42.622;25.386;2024-02-23T12:01:12;96903.34;;;19.64;33.44
9439;BME280;5176;42.622;25.386;2024-02-23T12:03:39;96907.06;;;19.88;32.90
9439;BME280;5176;42.622;25.386;2024-02-23T12:06:07;96906.06;;;19.80;32.94
9439;BME280;5176;42.622;25.386;2024-02-23T12:08:35;96903.16;;;19.66;33.31
9439;BME280;5176;42.622;25.386;2024-02-23T12:11:05;96905.53;;;19.77;33.57
9439;BME280;5176;42.622;25.386;2024-02-23T12:13:35;96901.56;;;19.89;32.75
9439;BME280;5176;42.622;25.386;2024-02-23T12:16:03;96894.94;;;19.93;32.67
9439;BME280;5176;42.622;25.386;2024-02-23T12:18:33;96891.47;;;20.33;32.85
9439;BME280;5176;42.622;25.386;2024-02-23T12:21:00;96898.75;;;20.64;32.74
9439;BME280;5176;42.622;25.386;2024-02-23T12:23:38;96893.38;;;20.97;31.26
9439;BME280;5176;42.622;25.386;2024-02-23T12:26:06;96890.81;;;21.11;31.56
9439;BME280;5176;42.622;25.386;2024-02-23T12:28:35;96889.94;;;21.27;31.02
9439;BME280;5176;42.622;25.386;2024-02-23T12:31:03;96885.59;;;21.26;31.31
9439;BME280;5176;42.622;25.386;2024-02-23T12:33:32;96882.94;;;21.34;30.64
9439;BME280;5176;42.622;25.386;2024-02-23T12:36:00;96877.06;;;21.47;30.86
9439;BME280;5176;42.622;25.386;2024-02-23T12:38:28;96880.19;;;21.51;30.21
9439;BME280;5176;42.622;25.386;2024-02-23T12:40:55;96871.97;;;21.60;31.16
9439;BME280;5176;42.622;25.386;2024-02-23T12:43:23;96875.28;;;21.62;30.72
9439;BME280;5176;42.622;25.386;2024-02-23T12:45:53;96870.53;;;21.49;30.24
9439;BME280;5176;42.622;25.386;2024-02-23T12:48:21;96869.50;;;21.51;30.32
9439;BME280;5176;42.622;25.386;2024-02-23T12:50:49;96866.66;;;21.60;30.75
9439;BME280;5176;42.622;25.386;2024-02-23T12:53:31;96861.56;;;21.73;30.87
9439;BME280;5176;42.622;25.386;2024-02-23T12:56:00;96855.16;;;21.83;31.05
9439;BME280;5176;42.622;25.386;2024-02-23T12:58:28;96860.56;;;21.66;30.25
9439;BME280;5176;42.622;25.386;2024-02-23T13:00:57;96858.72;;;21.44;30.34
9439;BME280;5176;42.622;25.386;2024-02-23T13:03:25;96877.03;;;21.00;30.64
9439;BME280;5176;42.622;25.386;2024-02-23T13:05:53;96875.06;;;20.85;31.04
9439;BME280;5176;42.622;25.386;2024-02-23T13:08:21;96865.25;;;20.86;30.99
9439;BME280;5176;42.622;25.386;2024-02-23T13:10:49;96868.41;;;20.89;30.94
9439;BME280;5176;42.622;25.386;2024-02-23T13:13:16;96860.59;;;20.88;31.03
9439;BME280;5176;42.622;25.386;2024-02-23T13:15:44;96867.63;;;20.73;31.00
9439;BME280;5176;42.622;25.386;2024-02-23T13:18:13;96860.00;;;20.61;31.47
9439;BME280;5176;42.622;25.386;2024-02-23T13:20:42;96848.38;;;20.54;31.36
9439;BME280;5176;42.622;25.386;2024-02-23T13:23:10;96852.34;;;20.58;31.72